sensor_id;sensor_type;location;lat;lon;timestamp;P1;durP1;ratioP1;P2;durP2;ratioP2
26325;SDS011;14032;52.510;7.342;2022-11-21T00:01:33;44.33;;;26.38;;
26325;SDS011;14032;52.510;7.342;2022-11-21T00:03:58;42.35;;;25.38;;
26325;SDS011;14032;52.510;7.342;2022-11-21T00:06:24;43.55;;;25.85;;
26325;SDS011;14032;52.510;7.342;2022-11-21T00:08:50;45.90;;;27.15;;
26325;SDS011;14032;52.510;7.342;2022-11-21T00:11:16;46.47;;;25.92;;
26325;SDS011;14032;52.510;7.342;2022-11-21T00:13:41;45.45;;;26.50;;
26325;SDS011;14032;52.510;7.342;2022-11-21T00:16:10;44.38;;;26.13;;
26325;SDS011;14032;52.510;7.342;2022-11-21T00:18:37;41.20;;;25.13;;
26325;SDS011;14032;52.510;7.342;2022-11-21T00:21:08;48.28;;;28.25;;
26325;SDS011;14032;52.510;7.342;2022-11-21T00:23:39;40.72;;;25.95;;
26325;SDS011;14032;52.510;7.342;2022-11-21T00:26:05;45.75;;;26.67;;
26325;SDS011;14032;52.510;7.342;2022-11-21T00:28:32;46.95;;;26.88;;
26325;SDS011;14032;52.510;7.342;2022-11-21T00:30:58;42.95;;;25.95;;
26325;SDS011;14032;52.510;7.342;2022-11-21T00:33:24;42.55;;;26.27;;
26325;SDS011;14032;52.510;7.342;2022-11-21T00:35:49;42.15;;;25.45;;
26325;SDS011;14032;52.510;7.342;2022-11-21T00:38:15;44.17;;;26.70;;
26325;SDS011;14032;52.510;7.342;2022-11-21T00:40:44;44.20;;;25.92;;
26325;SDS011;14032;52.510;7.342;2022-11-21T00:43:09;44.67;;;26.73;;
26325;SDS011;14032;52.510;7.342;2022-11-21T00:45:36;38.13;;;24.77;;
26325;SDS011;14032;52.510;7.342;2022-11-21T00:48:02;42.67;;;26.55;;
26325;SDS011;14032;52.510;7.342;2022-11-21T00:50:27;43.17;;;26.83;;
26325;SDS011;14032;52.510;7.342;2022-11-21T00:52:56;46.97;;;28.02;;
26325;SDS011;14032;52.510;7.342;2022-11-21T00:55:23;45.45;;;26.83;;
26325;SDS011;14032;52.510;7.342;2022-11-21T00:57:49;43.67;;;26.73;;
26325;SDS011;14032;52.510;7.342;2022-11-21T01:00:15;43.45;;;26.08;;
26325;SDS011;14032;52.510;7.342;2022-11-21T01:02:42;47.35;;;25.70;;
26325;SDS011;14032;52.510;7.342;2022-11-21T01:05:08;48.00;;;27.27;;
26325;SDS011;14032;52.510;7.342;2022-11-21T01:07:33;46.17;;;27.20;;
26325;SDS011;14032;52.510;7.342;2022-11-21T01:09:59;41.83;;;24.88;;
26325;SDS011;14032;52.510;7.342;2022-11-21T01:12:25;43.47;;;26.08;;
26325;SDS011;14032;52.510;7.342;2022-11-21T01:14:50;45.83;;;27.75;;
26325;SDS011;14032;52.510;7.342;2022-11-21T01:17:16;47.25;;;28.00;;
26325;SDS011;14032;52.510;7.342;2022-11-21T01:19:42;47.83;;;28.85;;
26325;SDS011;14032;52.510;7.342;2022-11-21T01:22:07;48.55;;;28.58;;
26325;SDS011;14032;52.510;7.342;2022-11-21T01:24:33;49.47;;;28.20;;
26325;SDS011;14032;52.510;7.342;2022-11-21T01:26:59;52.28;;;29.52;;
26325;SDS011;14032;52.510;7.342;2022-11-21T01:29:24;49.10;;;28.13;;
26325;SDS011;14032;52.510;7.342;2022-11-21T01:31:51;46.47;;;27.63;;
26325;SDS011;14032;52.510;7.342;2022-11-21T01:34:16;48.58;;;27.95;;
26325;SDS011;14032;52.510;7.342;2022-11-21T01:36:42;47.00;;;27.48;;
26325;SDS011;14032;52.510;7.342;2022-11-21T01:39:09;52.38;;;29.48;;
26325;SDS011;14032;52.510;7.342;2022-11-21T01:41:37;51.05;;;29.20;;
26325;SDS011;14032;52.510;7.342;2022-11-21T01:44:53;51.78;;;29.15;;
26325;SDS011;14032;52.510;7.342;2022-11-21T01:47:14;46.13;;;28.08;;
26325;SDS011;14032;52.510;7.342;2022-11-21T01:49:41;50.38;;;29.98;;
26325;SDS011;14032;52.510;7.342;2022-11-21T01:55:01;50.47;;;29.25;;
26325;SDS011;14032;52.510;7.342;2022-11-21T01:57:40;50.97;;;30.40;;
26325;SDS011;14032;52.510;7.342;2022-11-21T02:00:12;49.80;;;28.30;;
26325;SDS011;14032;52.510;7.342;2022-11-21T02:02:47;49.30;;;29.33;;
26325;SDS011;14032;52.510;7.342;2022-11-21T02:05:18;52.53;;;30.80;;
26325;SDS011;14032;52.510;7.342;2022-11-21T02:07:47;54.67;;;30.02;;
26325;SDS011;14032;52.510;7.342;2022-11-21T02:10:16;59.40;;;31.15;;
26325;SDS011;14032;52.510;7.342;2022-11-21T02:12:46;57.35;;;31.60;;
26325;SDS011;14032;52.510;7.342;2022-11-21T02:15:14;60.58;;;32.25;;
26325;SDS011;14032;52.510;7.342;2022-11-21T02:17:40;55.35;;;32.70;;
26325;SDS011;14032;52.510;7.342;2022-11-21T02:20:07;56.15;;;31.63;;
26325;SDS011;14032;52.510;7.342;2022-11-21T02:22:41;58.10;;;32.22;;
26325;SDS011;14032;52.510;7.342;2022-11-21T02:25:31;53.03;;;31.20;;
26325;SDS011;14032;52.510;7.342;2022-11-21T02:28:00;51.58;;;30.00;;
26325;SDS011;14032;52.510;7.342;2022-11-21T02:30:28;56.25;;;32.03;;
26325;SDS011;14032;52.510;7.342;2022-11-21T02:32:56;51.72;;;29.98;;
26325;SDS011;14032;52.510;7.342;2022-11-21T02:35:23;56.95;;;32.85;;
26325;SDS011;14032;52.510;7.342;2022-11-21T02:40:47;56.53;;;32.00;;
26325;SDS011;14032;52.510;7.342;2022-11-21T02:43:23;54.92;;;30.90;;
26325;SDS011;14032;52.510;7.342;2022-11-21T02:45:53;47.50;;;29.23;;
26325;SDS011;14032;52.510;7.342;2022-11-21T02:48:20;53.15;;;30.25;;
26325;SDS011;14032;52.510;7.342;2022-11-21T02:50:46;55.60;;;31.35;;
26325;SDS011;14032;52.510;7.342;2022-11-21T02:53:13;54.70;;;30.30;;
26325;SDS011;14032;52.510;7.342;2022-11-21T02:55:41;53.78;;;28.67;;
26325;SDS011;14032;52.510;7.342;2022-11-21T02:58:07;51.90;;;31.10;;
26325;SDS011;14032;52.510;7.342;2022-11-21T03:00:33;57.22;;;32.42;;
26325;SDS011;14032;52.510;7.342;2022-11-21T03:03:00;51.60;;;28.77;;
26325;SDS011;14032;52.510;7.342;2022-11-21T03:05:26;47.80;;;27.75;;
26325;SDS011;14032;52.510;7.342;2022-11-21T03:07:52;56.22;;;31.17;;
26325;SDS011;14032;52.510;7.342;2022-11-21T03:10:17;53.63;;;30.88;;
26325;SDS011;14032;52.510;7.342;2022-11-21T03:12:43;52.17;;;29.25;;
26325;SDS011;14032;52.510;7.342;2022-11-21T03:15:10;54.25;;;31.00;;
26325;SDS011;14032;52.510;7.342;2022-11-21T03:17:37;53.65;;;30.83;;
26325;SDS011;14032;52.510;7.342;2022-11-21T03:20:04;51.08;;;30.85;;
26325;SDS011;14032;52.510;7.342;2022-11-21T03:22:30;55.17;;;32.58;;
26325;SDS011;14032;52.510;7.342;2022-11-21T03:24:56;54.30;;;30.73;;
26325;SDS011;14032;52.510;7.342;2022-11-21T03:27:21;50.50;;;30.05;;
26325;SDS011;14032;52.510;7.342;2022-11-21T03:29:47;51.42;;;30.40;;
26325;SDS011;14032;52.510;7.342;2022-11-21T03:32:13;51.13;;;30.00;;
26325;SDS011;14032;52.510;7.342;2022-11-21T03:34:39;51.45;;;30.33;;
26325;SDS011;14032;52.510;7.342;2022-11-21T03:37:05;48.75;;;29.38;;
26325;SDS011;14032;52.510;7.342;2022-11-21T03:39:30;45.67;;;26.73;;
26325;SDS011;14032;52.510;7.342;2022-11-21T03:41:56;51.30;;;29.00;;
26325;SDS011;14032;52.510;7.342;2022-11-21T03:44:22;46.38;;;27.42;;
26325;SDS011;14032;52.510;7.342;2022-11-21T03:46:47;47.78;;;27.52;;
26325;SDS011;14032;52.510;7.342;2022-11-21T03:49:13;46.85;;;27.95;;
26325;SDS011;14032;52.510;7.342;2022-11-21T03:51:40;47.53;;;26.83;;
26325;SDS011;14032;52.510;7.342;2022-11-21T03:54:06;47.47;;;27.35;;
26325;SDS011;14032;52.510;7.342;2022-11-21T03:56:32;45.13;;;26.33;;
26325;SDS011;14032;52.510;7.342;2022-11-21T03:58:58;46.13;;;28.05;;
26325;SDS011;14032;52.510;7.342;2022-11-21T04:01:24;45.63;;;27.20;;
26325;SDS011;14032;52.510;7.342;2022-11-21T04:03:50;44.22;;;25.67;;
26325;SDS011;14032;52.510;7.342;2022-11-21T04:06:18;40.92;;;26.13;;
26325;SDS011;14032;52.510;7.342;2022-11-21T04:08:45;43.65;;;26.67;;
26325;SDS011;14032;52.510;7.342;2022-11-21T04:11:11;43.13;;;26.08;;
26325;SDS011;14032;52.510;7.342;2022-11-21T04:13:37;50.30;;;27.83;;
26325;SDS011;14032;52.510;7.342;2022-11-21T04:16:03;49.00;;;29.05;;
26325;SDS011;14032;52.510;7.342;2022-11-21T04:18:29;49.50;;;28.02;;
26325;SDS011;14032;52.510;7.342;2022-11-21T04:20:58;48.40;;;28.30;;
26325;SDS011;14032;52.510;7.342;2022-11-21T04:23:26;47.22;;;28.42;;
26325;SDS011;14032;52.510;7.342;2022-11-21T04:25:52;51.72;;;27.55;;
26325;SDS011;14032;52.510;7.342;2022-11-21T04:28:18;47.33;;;28.33;;
26325;SDS011;14032;52.510;7.342;2022-11-21T04:30:44;47.30;;;28.08;;
26325;SDS011;14032;52.510;7.342;2022-11-21T04:33:10;42.95;;;26.20;;
26325;SDS011;14032;52.510;7.342;2022-11-21T04:35:37;42.33;;;26.83;;
26325;SDS011;14032;52.510;7.342;2022-11-21T04:38:02;45.15;;;26.15;;
26325;SDS011;14032;52.510;7.342;2022-11-21T04:40:28;42.38;;;27.15;;
26325;SDS011;14032;52.510;7.342;2022-11-21T04:42:54;45.33;;;26.52;;
26325;SDS011;14032;52.510;7.342;2022-11-21T04:45:19;42.42;;;25.85;;
26325;SDS011;14032;52.510;7.342;2022-11-21T04:47:45;49.47;;;28.27;;
26325;SDS011;14032;52.510;7.342;2022-11-21T04:50:13;45.22;;;27.60;;
26325;SDS011;14032;52.510;7.342;2022-11-21T04:52:40;46.58;;;28.17;;
26325;SDS011;14032;52.510;7.342;2022-11-21T04:55:06;46.33;;;26.83;;
26325;SDS011;14032;52.510;7.342;2022-11-21T04:57:32;44.38;;;26.92;;
26325;SDS011;14032;52.510;7.342;2022-11-21T04:59:58;46.65;;;27.50;;
26325;SDS011;14032;52.510;7.342;2022-11-21T05:02:24;43.15;;;25.90;;
26325;SDS011;14032;52.510;7.342;2022-11-21T05:04:50;45.10;;;26.88;;
26325;SDS011;14032;52.510;7.342;2022-11-21T05:07:16;41.47;;;24.48;;
26325;SDS011;14032;52.510;7.342;2022-11-21T05:09:41;47.45;;;26.58;;
26325;SDS011;14032;52.510;7.342;2022-11-21T05:12:10;46.08;;;25.98;;
26325;SDS011;14032;52.510;7.342;2022-11-21T05:14:55;45.53;;;25.65;;
26325;SDS011;14032;52.510;7.342;2022-11-21T05:17:21;42.88;;;25.13;;
26325;SDS011;14032;52.510;7.342;2022-11-21T05:19:46;43.03;;;24.52;;
26325;SDS011;14032;52.510;7.342;2022-11-21T05:22:12;44.65;;;26.27;;
26325;SDS011;14032;52.510;7.342;2022-11-21T05:24:38;43.50;;;25.52;;
26325;SDS011;14032;52.510;7.342;2022-11-21T05:27:03;41.42;;;24.63;;
26325;SDS011;14032;52.510;7.342;2022-11-21T05:29:29;44.28;;;25.63;;
26325;SDS011;14032;52.510;7.342;2022-11-21T05:31:55;40.67;;;24.42;;
26325;SDS011;14032;52.510;7.342;2022-11-21T05:34:22;41.58;;;25.38;;
26325;SDS011;14032;52.510;7.342;2022-11-21T05:36:47;44.47;;;26.00;;
26325;SDS011;14032;52.510;7.342;2022-11-21T05:39:13;47.97;;;27.35;;
26325;SDS011;14032;52.510;7.342;2022-11-21T05:41:40;45.30;;;25.80;;
26325;SDS011;14032;52.510;7.342;2022-11-21T05:44:08;38.08;;;24.05;;
26325;SDS011;14032;52.510;7.342;2022-11-21T05:46:34;44.33;;;24.60;;
26325;SDS011;14032;52.510;7.342;2022-11-21T05:48:59;45.45;;;26.88;;
26325;SDS011;14032;52.510;7.342;2022-11-21T05:51:25;46.70;;;26.77;;
26325;SDS011;14032;52.510;7.342;2022-11-21T05:53:51;50.92;;;27.33;;
26325;SDS011;14032;52.510;7.342;2022-11-21T05:56:17;48.47;;;27.60;;
26325;SDS011;14032;52.510;7.342;2022-11-21T05:58:43;45.67;;;27.65;;
26325;SDS011;14032;52.510;7.342;2022-11-21T06:01:10;41.95;;;25.50;;
26325;SDS011;14032;52.510;7.342;2022-11-21T06:03:38;46.55;;;28.00;;
26325;SDS011;14032;52.510;7.342;2022-11-21T06:06:09;48.03;;;27.17;;
26325;SDS011;14032;52.510;7.342;2022-11-21T06:08:43;46.20;;;26.80;;
26325;SDS011;14032;52.510;7.342;2022-11-21T06:11:14;47.63;;;27.35;;
26325;SDS011;14032;52.510;7.342;2022-11-21T06:13:41;51.22;;;28.23;;
26325;SDS011;14032;52.510;7.342;2022-11-21T06:18:37;48.00;;;27.48;;
26325;SDS011;14032;52.510;7.342;2022-11-21T06:21:05;46.15;;;26.25;;
26325;SDS011;14032;52.510;7.342;2022-11-21T06:23:37;45.35;;;26.08;;
26325;SDS011;14032;52.510;7.342;2022-11-21T06:26:04;47.22;;;26.27;;
26325;SDS011;14032;52.510;7.342;2022-11-21T06:28:33;48.13;;;27.02;;
26325;SDS011;14032;52.510;7.342;2022-11-21T06:31:01;47.47;;;27.20;;
26325;SDS011;14032;52.510;7.342;2022-11-21T06:33:27;51.45;;;28.50;;
26325;SDS011;14032;52.510;7.342;2022-11-21T06:35:53;48.50;;;28.83;;
26325;SDS011;14032;52.510;7.342;2022-11-21T06:38:18;48.97;;;27.38;;
26325;SDS011;14032;52.510;7.342;2022-11-21T06:40:44;52.72;;;29.92;;
26325;SDS011;14032;52.510;7.342;2022-11-21T06:43:10;56.63;;;29.92;;
26325;SDS011;14032;52.510;7.342;2022-11-21T06:45:35;48.80;;;28.83;;
26325;SDS011;14032;52.510;7.342;2022-11-21T06:48:01;47.67;;;28.65;;
26325;SDS011;14032;52.510;7.342;2022-11-21T06:50:27;51.80;;;29.23;;
26325;SDS011;14032;52.510;7.342;2022-11-21T06:52:58;48.88;;;28.60;;
26325;SDS011;14032;52.510;7.342;2022-11-21T06:55:24;47.35;;;28.55;;
26325;SDS011;14032;52.510;7.342;2022-11-21T06:57:51;50.22;;;27.30;;
26325;SDS011;14032;52.510;7.342;2022-11-21T07:00:17;49.45;;;28.40;;
26325;SDS011;14032;52.510;7.342;2022-11-21T07:02:45;41.60;;;24.75;;
26325;SDS011;14032;52.510;7.342;2022-11-21T07:05:23;45.25;;;25.35;;
26325;SDS011;14032;52.510;7.342;2022-11-21T07:07:58;51.58;;;27.17;;
26325;SDS011;14032;52.510;7.342;2022-11-21T07:10:30;48.40;;;26.88;;
26325;SDS011;14032;52.510;7.342;2022-11-21T07:12:56;47.30;;;26.83;;
26325;SDS011;14032;52.510;7.342;2022-11-21T07:15:41;45.80;;;27.58;;
26325;SDS011;14032;52.510;7.342;2022-11-21T07:18:07;48.97;;;27.20;;
26325;SDS011;14032;52.510;7.342;2022-11-21T07:20:33;54.40;;;30.08;;
26325;SDS011;14032;52.510;7.342;2022-11-21T07:22:58;51.97;;;28.83;;
26325;SDS011;14032;52.510;7.342;2022-11-21T07:25:25;46.88;;;28.27;;
26325;SDS011;14032;52.510;7.342;2022-11-21T07:27:50;46.75;;;26.60;;
26325;SDS011;14032;52.510;7.342;2022-11-21T07:30:16;46.47;;;27.92;;
26325;SDS011;14032;52.510;7.342;2022-11-21T07:32:41;50.72;;;28.38;;
26325;SDS011;14032;52.510;7.342;2022-11-21T07:35:07;48.15;;;27.77;;
26325;SDS011;14032;52.510;7.342;2022-11-21T07:37:37;49.33;;;27.73;;
26325;SDS011;14032;52.510;7.342;2022-11-21T07:40:03;44.47;;;26.00;;
26325;SDS011;14032;52.510;7.342;2022-11-21T07:42:33;45.90;;;27.10;;
26325;SDS011;14032;52.510;7.342;2022-11-21T07:44:58;51.63;;;28.45;;
26325;SDS011;14032;52.510;7.342;2022-11-21T07:47:24;51.35;;;28.70;;
26325;SDS011;14032;52.510;7.342;2022-11-21T07:49:50;52.05;;;28.90;;
26325;SDS011;14032;52.510;7.342;2022-11-21T07:52:15;51.47;;;29.65;;
26325;SDS011;14032;52.510;7.342;2022-11-21T07:54:41;48.05;;;28.75;;
26325;SDS011;14032;52.510;7.342;2022-11-21T07:57:06;53.10;;;29.70;;
26325;SDS011;14032;52.510;7.342;2022-11-21T07:59:32;393.55;;;248.68;;
26325;SDS011;14032;52.510;7.342;2022-11-21T08:01:58;94.18;;;57.08;;
26325;SDS011;14032;52.510;7.342;2022-11-21T08:04:23;57.53;;;31.67;;
26325;SDS011;14032;52.510;7.342;2022-11-21T08:06:49;54.45;;;31.15;;
26325;SDS011;14032;52.510;7.342;2022-11-21T08:09:14;55.13;;;34.20;;
26325;SDS011;14032;52.510;7.342;2022-11-21T08:11:54;53.75;;;32.15;;
26325;SDS011;14032;52.510;7.342;2022-11-21T08:14:20;54.35;;;30.83;;
26325;SDS011;14032;52.510;7.342;2022-11-21T08:16:46;54.53;;;30.48;;
26325;SDS011;14032;52.510;7.342;2022-11-21T08:19:17;59.03;;;31.95;;
26325;SDS011;14032;52.510;7.342;2022-11-21T08:21:43;60.22;;;32.85;;
26325;SDS011;14032;52.510;7.342;2022-11-21T08:24:08;61.50;;;32.60;;
26325;SDS011;14032;52.510;7.342;2022-11-21T08:26:38;55.25;;;30.85;;
26325;SDS011;14032;52.510;7.342;2022-11-21T08:29:04;57.10;;;30.58;;
26325;SDS011;14032;52.510;7.342;2022-11-21T08:31:30;59.65;;;32.72;;
26325;SDS011;14032;52.510;7.342;2022-11-21T08:33:57;60.80;;;31.75;;
26325;SDS011;14032;52.510;7.342;2022-11-21T08:36:23;59.53;;;34.15;;
26325;SDS011;14032;52.510;7.342;2022-11-21T08:38:49;57.70;;;32.72;;
26325;SDS011;14032;52.510;7.342;2022-11-21T08:41:14;62.30;;;33.00;;
26325;SDS011;14032;52.510;7.342;2022-11-21T08:43:59;62.63;;;34.38;;
26325;SDS011;14032;52.510;7.342;2022-11-21T08:46:24;57.75;;;32.20;;
26325;SDS011;14032;52.510;7.342;2022-11-21T08:48:55;59.63;;;33.83;;
26325;SDS011;14032;52.510;7.342;2022-11-21T08:51:21;56.10;;;32.58;;
26325;SDS011;14032;52.510;7.342;2022-11-21T08:53:46;59.58;;;33.58;;
26325;SDS011;14032;52.510;7.342;2022-11-21T08:56:12;59.90;;;33.15;;
26325;SDS011;14032;52.510;7.342;2022-11-21T08:58:39;55.75;;;32.33;;
26325;SDS011;14032;52.510;7.342;2022-11-21T09:01:04;67.10;;;34.85;;
26325;SDS011;14032;52.510;7.342;2022-11-21T09:03:31;65.13;;;35.47;;
26325;SDS011;14032;52.510;7.342;2022-11-21T09:05:58;67.78;;;36.15;;
26325;SDS011;14032;52.510;7.342;2022-11-21T09:08:24;66.40;;;35.67;;
26325;SDS011;14032;52.510;7.342;2022-11-21T09:10:50;63.95;;;33.60;;
26325;SDS011;14032;52.510;7.342;2022-11-21T09:13:16;65.68;;;35.45;;
26325;SDS011;14032;52.510;7.342;2022-11-21T09:15:42;61.00;;;35.17;;
26325;SDS011;14032;52.510;7.342;2022-11-21T09:18:26;62.95;;;34.20;;
26325;SDS011;14032;52.510;7.342;2022-11-21T09:20:51;70.97;;;36.72;;
26325;SDS011;14032;52.510;7.342;2022-11-21T09:23:17;66.53;;;36.30;;
26325;SDS011;14032;52.510;7.342;2022-11-21T09:25:43;67.05;;;37.33;;
26325;SDS011;14032;52.510;7.342;2022-11-21T09:28:09;63.85;;;34.42;;
26325;SDS011;14032;52.510;7.342;2022-11-21T09:30:36;67.65;;;35.25;;
26325;SDS011;14032;52.510;7.342;2022-11-21T09:33:03;66.80;;;34.65;;
26325;SDS011;14032;52.510;7.342;2022-11-21T09:35:34;61.22;;;34.88;;
26325;SDS011;14032;52.510;7.342;2022-11-21T09:38:00;59.25;;;33.10;;
26325;SDS011;14032;52.510;7.342;2022-11-21T09:40:33;55.92;;;32.60;;
26325;SDS011;14032;52.510;7.342;2022-11-21T09:48:21;60.90;;;32.78;;
26325;SDS011;14032;52.510;7.342;2022-11-21T09:50:55;64.28;;;33.28;;
26325;SDS011;14032;52.510;7.342;2022-11-21T09:55:58;64.75;;;34.58;;
26325;SDS011;14032;52.510;7.342;2022-11-21T10:01:28;68.28;;;34.95;;
26325;SDS011;14032;52.510;7.342;2022-11-21T10:03:54;73.43;;;37.50;;
26325;SDS011;14032;52.510;7.342;2022-11-21T10:06:21;72.75;;;38.03;;
26325;SDS011;14032;52.510;7.342;2022-11-21T10:17:21;63.55;;;33.88;;
26325;SDS011;14032;52.510;7.342;2022-11-21T10:20:11;61.80;;;33.38;;
26325;SDS011;14032;52.510;7.342;2022-11-21T10:22:59;74.18;;;35.42;;
26325;SDS011;14032;52.510;7.342;2022-11-21T10:25:39;58.35;;;34.42;;
26325;SDS011;14032;52.510;7.342;2022-11-21T10:28:19;68.75;;;33.63;;
26325;SDS011;14032;52.510;7.342;2022-11-21T10:31:02;68.80;;;35.58;;
26325;SDS011;14032;52.510;7.342;2022-11-21T10:33:33;59.45;;;34.17;;
26325;SDS011;14032;52.510;7.342;2022-11-21T10:36:26;55.65;;;32.25;;
26325;SDS011;14032;52.510;7.342;2022-11-21T10:38:50;62.00;;;33.55;;
26325;SDS011;14032;52.510;7.342;2022-11-21T10:41:23;61.10;;;33.83;;
26325;SDS011;14032;52.510;7.342;2022-11-21T10:44:04;55.17;;;30.92;;
26325;SDS011;14032;52.510;7.342;2022-11-21T10:47:21;53.97;;;31.42;;
26325;SDS011;14032;52.510;7.342;2022-11-21T10:52:38;48.63;;;29.98;;
26325;SDS011;14032;52.510;7.342;2022-11-21T10:55:12;54.33;;;30.80;;
26325;SDS011;14032;52.510;7.342;2022-11-21T10:57:39;54.03;;;31.27;;
26325;SDS011;14032;52.510;7.342;2022-11-21T11:02:36;53.22;;;29.85;;
26325;SDS011;14032;52.510;7.342;2022-11-21T11:05:16;43.95;;;27.05;;
26325;SDS011;14032;52.510;7.342;2022-11-21T11:07:42;44.88;;;26.95;;
26325;SDS011;14032;52.510;7.342;2022-11-21T11:10:23;41.85;;;25.70;;
26325;SDS011;14032;52.510;7.342;2022-11-21T11:12:49;46.03;;;27.25;;
26325;SDS011;14032;52.510;7.342;2022-11-21T11:15:34;45.80;;;27.52;;
26325;SDS011;14032;52.510;7.342;2022-11-21T11:18:02;45.55;;;26.77;;
26325;SDS011;14032;52.510;7.342;2022-11-21T11:20:33;43.85;;;26.60;;
26325;SDS011;14032;52.510;7.342;2022-11-21T11:26:13;40.88;;;25.10;;
26325;SDS011;14032;52.510;7.342;2022-11-21T11:28:42;44.40;;;25.23;;
26325;SDS011;14032;52.510;7.342;2022-11-21T11:31:07;39.95;;;24.85;;
26325;SDS011;14032;52.510;7.342;2022-11-21T11:44:51;36.33;;;21.63;;
26325;SDS011;14032;52.510;7.342;2022-11-21T11:47:42;34.80;;;22.98;;
26325;SDS011;14032;52.510;7.342;2022-11-21T11:50:17;35.90;;;22.52;;
26325;SDS011;14032;52.510;7.342;2022-11-21T11:53:14;38.13;;;22.73;;
26325;SDS011;14032;52.510;7.342;2022-11-21T12:01:18;38.67;;;23.75;;
26325;SDS011;14032;52.510;7.342;2022-11-21T12:07:21;36.03;;;22.63;;
26325;SDS011;14032;52.510;7.342;2022-11-21T12:15:02;34.88;;;22.33;;
26325;SDS011;14032;52.510;7.342;2022-11-21T12:20:48;32.45;;;20.42;;
26325;SDS011;14032;52.510;7.342;2022-11-21T12:23:48;33.42;;;20.13;;
26325;SDS011;14032;52.510;7.342;2022-11-21T12:37:29;35.13;;;20.85;;
26325;SDS011;14032;52.510;7.342;2022-11-21T12:40:26;32.83;;;20.25;;
26325;SDS011;14032;52.510;7.342;2022-11-21T12:46:04;37.15;;;22.08;;
26325;SDS011;14032;52.510;7.342;2022-11-21T12:51:52;45.80;;;24.35;;
26325;SDS011;14032;52.510;7.342;2022-11-21T12:55:12;49.55;;;26.80;;
26325;SDS011;14032;52.510;7.342;2022-11-21T12:57:51;44.30;;;24.77;;
26325;SDS011;14032;52.510;7.342;2022-11-21T13:08:20;46.72;;;25.67;;
26325;SDS011;14032;52.510;7.342;2022-11-21T13:16:57;54.67;;;28.65;;
26325;SDS011;14032;52.510;7.342;2022-11-21T13:19:54;54.55;;;28.77;;
26325;SDS011;14032;52.510;7.342;2022-11-21T13:25:09;56.88;;;28.08;;
26325;SDS011;14032;52.510;7.342;2022-11-21T13:27:42;61.00;;;30.23;;
26325;SDS011;14032;52.510;7.342;2022-11-21T13:40:36;68.80;;;32.58;;
26325;SDS011;14032;52.510;7.342;2022-11-21T13:45:43;67.63;;;32.22;;
26325;SDS011;14032;52.510;7.342;2022-11-21T14:07:29;87.35;;;37.13;;
26325;SDS011;14032;52.510;7.342;2022-11-21T14:09:57;92.15;;;39.05;;
26325;SDS011;14032;52.510;7.342;2022-11-21T14:12:32;99.07;;;39.22;;
26325;SDS011;14032;52.510;7.342;2022-11-21T14:17:46;89.63;;;40.40;;
26325;SDS011;14032;52.510;7.342;2022-11-21T14:20:21;91.60;;;39.97;;
26325;SDS011;14032;52.510;7.342;2022-11-21T14:22:53;100.07;;;40.90;;
26325;SDS011;14032;52.510;7.342;2022-11-21T14:25:44;105.45;;;41.30;;
26325;SDS011;14032;52.510;7.342;2022-11-21T14:28:35;93.47;;;40.13;;
26325;SDS011;14032;52.510;7.342;2022-11-21T14:33:31;101.85;;;41.05;;
26325;SDS011;14032;52.510;7.342;2022-11-21T14:35:59;110.55;;;43.90;;
26325;SDS011;14032;52.510;7.342;2022-11-21T14:43:48;125.57;;;55.10;;
26325;SDS011;14032;52.510;7.342;2022-11-21T14:46:14;102.55;;;43.95;;
26325;SDS011;14032;52.510;7.342;2022-11-21T14:48:44;92.90;;;41.40;;
26325;SDS011;14032;52.510;7.342;2022-11-21T14:51:13;104.88;;;41.80;;
26325;SDS011;14032;52.510;7.342;2022-11-21T14:53:41;116.53;;;41.90;;
26325;SDS011;14032;52.510;7.342;2022-11-21T14:56:09;116.25;;;42.15;;
26325;SDS011;14032;52.510;7.342;2022-11-21T14:58:43;111.40;;;42.70;;
26325;SDS011;14032;52.510;7.342;2022-11-21T15:01:22;115.18;;;44.45;;
26325;SDS011;14032;52.510;7.342;2022-11-21T15:03:57;104.40;;;42.53;;
26325;SDS011;14032;52.510;7.342;2022-11-21T15:06:28;109.53;;;41.85;;
26325;SDS011;14032;52.510;7.342;2022-11-21T15:08:57;105.00;;;42.08;;
26325;SDS011;14032;52.510;7.342;2022-11-21T15:11:26;122.57;;;43.10;;
26325;SDS011;14032;52.510;7.342;2022-11-21T15:14:02;121.38;;;44.67;;
26325;SDS011;14032;52.510;7.342;2022-11-21T15:16:36;103.22;;;39.25;;
26325;SDS011;14032;52.510;7.342;2022-11-21T15:19:07;106.88;;;41.42;;
26325;SDS011;14032;52.510;7.342;2022-11-21T15:21:34;123.70;;;43.88;;
26325;SDS011;14032;52.510;7.342;2022-11-21T15:24:14;113.90;;;42.70;;
26325;SDS011;14032;52.510;7.342;2022-11-21T15:26:53;112.13;;;41.75;;
26325;SDS011;14032;52.510;7.342;2022-11-21T15:29:19;118.85;;;41.58;;
26325;SDS011;14032;52.510;7.342;2022-11-21T15:31:45;121.70;;;42.05;;
26325;SDS011;14032;52.510;7.342;2022-11-21T15:34:29;118.75;;;41.72;;
26325;SDS011;14032;52.510;7.342;2022-11-21T15:39:50;103.47;;;40.22;;
26325;SDS011;14032;52.510;7.342;2022-11-21T15:42:27;122.57;;;41.78;;
26325;SDS011;14032;52.510;7.342;2022-11-21T15:45:19;127.07;;;42.10;;
26325;SDS011;14032;52.510;7.342;2022-11-21T15:47:41;120.85;;;41.75;;
26325;SDS011;14032;52.510;7.342;2022-11-21T15:50:07;121.90;;;42.83;;
26325;SDS011;14032;52.510;7.342;2022-11-21T15:52:43;120.15;;;41.92;;
26325;SDS011;14032;52.510;7.342;2022-11-21T15:58:05;132.55;;;42.95;;
26325;SDS011;14032;52.510;7.342;2022-11-21T16:00:30;131.20;;;42.13;;
26325;SDS011;14032;52.510;7.342;2022-11-21T16:02:56;123.97;;;44.28;;
26325;SDS011;14032;52.510;7.342;2022-11-21T16:05:22;116.50;;;40.03;;
26325;SDS011;14032;52.510;7.342;2022-11-21T16:07:47;124.05;;;42.70;;
26325;SDS011;14032;52.510;7.342;2022-11-21T16:10:13;124.55;;;42.90;;
26325;SDS011;14032;52.510;7.342;2022-11-21T16:12:38;126.75;;;42.58;;
26325;SDS011;14032;52.510;7.342;2022-11-21T16:15:04;135.32;;;43.15;;
26325;SDS011;14032;52.510;7.342;2022-11-21T16:17:30;131.90;;;42.30;;
26325;SDS011;14032;52.510;7.342;2022-11-21T16:19:55;132.05;;;43.90;;
26325;SDS011;14032;52.510;7.342;2022-11-21T16:22:21;135.13;;;41.97;;
26325;SDS011;14032;52.510;7.342;2022-11-21T16:24:46;129.27;;;42.47;;
26325;SDS011;14032;52.510;7.342;2022-11-21T16:27:12;119.38;;;40.72;;
26325;SDS011;14032;52.510;7.342;2022-11-21T16:29:38;120.35;;;39.85;;
26325;SDS011;14032;52.510;7.342;2022-11-21T16:32:03;137.20;;;42.05;;
26325;SDS011;14032;52.510;7.342;2022-11-21T16:34:29;138.05;;;40.85;;
26325;SDS011;14032;52.510;7.342;2022-11-21T16:36:56;129.05;;;39.92;;
26325;SDS011;14032;52.510;7.342;2022-11-21T16:39:22;124.10;;;39.42;;
26325;SDS011;14032;52.510;7.342;2022-11-21T16:41:48;115.22;;;37.85;;
26325;SDS011;14032;52.510;7.342;2022-11-21T16:44:14;118.95;;;37.63;;
26325;SDS011;14032;52.510;7.342;2022-11-21T16:46:41;115.60;;;37.03;;
26325;SDS011;14032;52.510;7.342;2022-11-21T16:49:08;112.85;;;36.50;;
26325;SDS011;14032;52.510;7.342;2022-11-21T16:51:34;113.38;;;36.60;;
26325;SDS011;14032;52.510;7.342;2022-11-21T16:54:00;108.90;;;35.75;;
26325;SDS011;14032;52.510;7.342;2022-11-21T16:56:25;107.63;;;37.83;;
26325;SDS011;14032;52.510;7.342;2022-11-21T16:58:51;126.07;;;39.15;;